createdAt,value
2023-03-19T00:01:09.351Z,100.00
2023-03-19T00:03:44.590Z,100.00
2023-03-19T00:06:13.175Z,100.00
2023-03-19T00:08:42.148Z,100.00
2023-03-19T00:11:12.574Z,100.00
2023-03-19T00:13:40.984Z,100.00
2023-03-19T00:16:09.400Z,100.00
2023-03-19T00:18:37.659Z,100.00
2023-03-19T00:21:06.054Z,100.00
2023-03-19T00:23:34.615Z,100.00
2023-03-19T00:26:04.146Z,100.00
2023-03-19T00:28:32.357Z,100.00
2023-03-19T00:31:12.769Z,100.00
2023-03-19T00:33:41.705Z,100.00
2023-03-19T00:36:12.517Z,100.00
2023-03-19T00:38:41.464Z,100.00
2023-03-19T00:41:09.675Z,100.00
2023-03-19T00:43:38.719Z,100.00
2023-03-19T00:46:07.644Z,100.00
2023-03-19T00:48:35.975Z,100.00
2023-03-19T00:51:09.852Z,100.00
2023-03-19T00:53:42.954Z,100.00
2023-03-19T00:56:13.479Z,100.00
2023-03-19T00:58:41.866Z,100.00
2023-03-19T01:01:12.969Z,100.00
2023-03-19T01:03:41.575Z,100.00
2023-03-19T01:06:10.054Z,100.00
2023-03-19T01:08:38.175Z,100.00
2023-03-19T01:11:10.252Z,100.00
2023-03-19T01:13:38.692Z,100.00
2023-03-19T01:16:07.404Z,100.00
2023-03-19T01:18:35.845Z,100.00
2023-03-19T01:21:04.493Z,100.00
2023-03-19T01:23:33.970Z,100.00
2023-03-19T01:26:03.922Z,100.00
2023-03-19T01:28:32.575Z,100.00
2023-03-19T01:31:05.789Z,100.00
2023-03-19T01:34:12.604Z,100.00
2023-03-19T01:36:47.324Z,100.00
2023-03-19T01:39:18.942Z,100.00
2023-03-19T01:41:48.261Z,100.00
2023-03-19T01:44:49.385Z,100.00
2023-03-19T01:47:43.203Z,100.00
2023-03-19T01:50:38.021Z,100.00
2023-03-19T01:53:37.881Z,100.00
2023-03-19T01:56:32.916Z,100.00
2023-03-19T01:59:23.219Z,100.00
2023-03-19T02:02:35.071Z,100.00
2023-03-19T02:05:17.869Z,100.00
2023-03-19T02:07:46.592Z,100.00
2023-03-19T02:10:17.306Z,100.00
2023-03-19T02:12:46.751Z,100.00
2023-03-19T02:15:15.952Z,100.00
2023-03-19T02:17:45.110Z,100.00
2023-03-19T02:21:01.203Z,100.00
2023-03-19T02:24:27.690Z,100.00
2023-03-19T02:27:08.231Z,100.00
2023-03-19T02:29:38.517Z,100.00
2023-03-19T02:32:06.843Z,100.00
2023-03-19T02:34:40.032Z,100.00
2023-03-19T02:37:13.793Z,100.00
2023-03-19T02:40:00.525Z,100.00
2023-03-19T02:42:30.738Z,100.00
2023-03-19T02:44:58.767Z,100.00
2023-03-19T02:47:28.004Z,100.00
2023-03-19T02:49:56.617Z,100.00
2023-03-19T02:52:24.697Z,100.00
2023-03-19T02:54:53.236Z,100.00
2023-03-19T02:57:21.392Z,100.00
2023-03-19T02:59:49.858Z,100.00
2023-03-19T03:02:18.142Z,100.00
2023-03-19T03:04:48.209Z,100.00
2023-03-19T03:07:17.394Z,100.00
2023-03-19T03:09:45.508Z,100.00
2023-03-19T03:12:14.062Z,100.00
2023-03-19T03:14:43.795Z,100.00
2023-03-19T03:17:11.774Z,100.00
2023-03-19T03:19:40.201Z,100.00
2023-03-19T03:22:09.176Z,100.00
2023-03-19T03:24:37.603Z,100.00
2023-03-19T03:27:05.792Z,100.00
2023-03-19T03:29:33.808Z,100.00
2023-03-19T03:32:01.850Z,100.00
2023-03-19T03:34:30.583Z,100.00
2023-03-19T03:36:58.586Z,100.00
2023-03-19T03:39:26.676Z,100.00
2023-03-19T03:41:57.567Z,100.00
2023-03-19T03:44:26.394Z,100.00
2023-03-19T03:46:54.613Z,100.00
2023-03-19T03:49:24.232Z,100.00
2023-03-19T03:51:52.701Z,100.00
2023-03-19T03:54:21.490Z,100.00
2023-03-19T03:56:50.689Z,100.00
2023-03-19T03:59:18.845Z,100.00
2023-03-19T04:01:46.901Z,100.00
2023-03-19T04:04:15.717Z,100.00
2023-03-19T04:06:43.961Z,100.00
2023-03-19T04:09:14.786Z,100.00
2023-03-19T04:11:43.025Z,100.00
2023-03-19T04:14:11.277Z,100.00
2023-03-19T04:16:40.239Z,100.00
2023-03-19T04:19:08.382Z,100.00
2023-03-19T04:21:36.628Z,100.00
2023-03-19T04:24:05.013Z,100.00
2023-03-19T04:26:33.544Z,100.00
2023-03-19T04:29:01.708Z,100.00
2023-03-19T04:31:30.138Z,100.00
2023-03-19T04:33:58.557Z,100.00
2023-03-19T04:36:27.058Z,100.00
2023-03-19T04:38:55.128Z,100.00
2023-03-19T04:41:23.661Z,100.00
2023-03-19T04:44:20.098Z,100.00
2023-03-19T04:46:48.122Z,100.00
2023-03-19T04:49:18.227Z,100.00
2023-03-19T04:51:46.680Z,100.00
2023-03-19T04:54:14.831Z,100.00
2023-03-19T04:56:42.894Z,100.00
2023-03-19T04:59:12.646Z,100.00
2023-03-19T05:01:40.786Z,100.00
2023-03-19T05:04:12.409Z,100.00
2023-03-19T05:06:43.794Z,100.00
2023-03-19T05:09:13.147Z,100.00
2023-03-19T05:11:42.240Z,100.00
2023-03-19T05:14:16.991Z,100.00
2023-03-19T05:17:07.811Z,100.00
2023-03-19T05:20:02.747Z,100.00
2023-03-19T05:22:32.973Z,100.00
2023-03-19T05:25:02.499Z,100.00
2023-03-19T05:27:31.037Z,100.00
2023-03-19T05:30:23.745Z,100.00
2023-03-19T05:33:12.835Z,100.00
2023-03-19T05:35:43.229Z,100.00
2023-03-19T05:38:18.502Z,100.00
2023-03-19T05:40:50.989Z,100.00
2023-03-19T05:43:26.425Z,100.00
2023-03-19T05:45:54.670Z,100.00
2023-03-19T05:48:26.658Z,100.00
2023-03-19T05:50:55.414Z,100.00
2023-03-19T05:53:24.061Z,100.00
2023-03-19T05:56:17.967Z,100.00
2023-03-19T05:58:57.232Z,100.00
2023-03-19T06:01:28.769Z,100.00
2023-03-19T06:03:57.455Z,100.00
2023-03-19T06:06:25.827Z,100.00
2023-03-19T06:08:54.410Z,100.00
2023-03-19T06:11:29.306Z,100.00
2023-03-19T06:14:14.426Z,100.00
2023-03-19T06:16:43.922Z,100.00
2023-03-19T06:19:12.391Z,100.00
2023-03-19T06:21:42.564Z,100.00
2023-03-19T06:24:10.608Z,100.00
2023-03-19T06:26:39.458Z,100.00
2023-03-19T06:29:12.746Z,100.00
2023-03-19T06:31:42.030Z,100.00
2023-03-19T06:34:21.531Z,100.00
2023-03-19T06:36:53.977Z,100.00
2023-03-19T06:39:22.578Z,100.00
2023-03-19T06:41:51.477Z,100.00
2023-03-19T06:44:21.836Z,100.00
2023-03-19T06:46:49.862Z,100.00
2023-03-19T06:49:18.145Z,100.00
2023-03-19T06:51:46.813Z,100.00
2023-03-19T06:54:15.529Z,100.00
2023-03-19T06:56:43.528Z,100.00
2023-03-19T06:59:17.731Z,100.00
2023-03-19T07:01:46.990Z,100.00
2023-03-19T07:04:16.478Z,100.00
2023-03-19T07:06:44.636Z,100.00
2023-03-19T07:09:13.267Z,100.00
2023-03-19T07:11:41.451Z,100.00
2023-03-19T07:14:09.909Z,100.00
2023-03-19T07:16:38.096Z,100.00
2023-03-19T07:19:06.298Z,100.00
2023-03-19T07:21:34.380Z,100.00
2023-03-19T07:24:02.463Z,100.00
2023-03-19T07:26:30.754Z,100.00
2023-03-19T07:28:59.037Z,100.00
2023-03-19T07:31:27.088Z,100.00
2023-03-19T07:33:55.133Z,100.00
2023-03-19T07:36:23.500Z,100.00
2023-03-19T07:38:51.612Z,100.00
2023-03-19T07:41:20.972Z,100.00
2023-03-19T07:43:49.739Z,100.00
2023-03-19T07:46:18.730Z,100.00
2023-03-19T07:48:46.960Z,100.00
2023-03-19T07:51:15.435Z,100.00
2023-03-19T07:53:44.403Z,100.00
2023-03-19T07:56:14.347Z,100.00
2023-03-19T07:58:42.405Z,100.00
2023-03-19T08:01:10.738Z,100.00
2023-03-19T08:03:39.640Z,100.00
2023-03-19T08:06:08.166Z,100.00
2023-03-19T08:08:36.928Z,100.00
2023-03-19T08:11:05.101Z,100.00
2023-03-19T08:13:33.369Z,100.00
2023-03-19T08:16:01.708Z,100.00
2023-03-19T08:18:32.494Z,100.00
2023-03-19T08:21:00.836Z,100.00
2023-03-19T08:23:29.164Z,100.00
2023-03-19T08:25:57.213Z,100.00
2023-03-19T08:28:25.520Z,100.00
2023-03-19T08:30:56.272Z,98.59
2023-03-19T08:33:25.017Z,98.08
2023-03-19T08:35:53.557Z,100.00
2023-03-19T08:38:21.823Z,99.03
2023-03-19T08:40:50.003Z,99.82
2023-03-19T08:43:18.000Z,98.75
2023-03-19T08:45:48.103Z,98.59
2023-03-19T08:48:16.130Z,99.86
2023-03-19T08:50:44.716Z,99.18
2023-03-19T08:53:12.772Z,97.71
2023-03-19T08:55:41.017Z,98.52
2023-03-19T08:58:09.307Z,97.27
2023-03-19T09:00:37.437Z,97.20
2023-03-19T09:03:06.964Z,95.26
2023-03-19T09:05:36.039Z,94.15
2023-03-19T09:08:06.442Z,96.22
2023-03-19T09:10:35.319Z,100.00
2023-03-19T09:13:03.623Z,96.94
2023-03-19T09:15:33.501Z,95.42
2023-03-19T09:18:01.832Z,94.02
2023-03-19T09:20:30.790Z,94.51
2023-03-19T09:22:58.872Z,96.43
2023-03-19T09:25:28.986Z,99.16
2023-03-19T09:27:57.032Z,98.10
2023-03-19T09:30:25.196Z,97.50
2023-03-19T09:32:54.408Z,98.13
2023-03-19T09:35:23.177Z,99.67
2023-03-19T09:37:52.828Z,99.02
2023-03-19T09:40:26.544Z,98.61
2023-03-19T09:43:03.375Z,98.59
2023-03-19T09:45:37.218Z,99.28
2023-03-19T09:48:15.056Z,95.68
2023-03-19T09:50:43.733Z,95.50
2023-03-19T09:53:38.936Z,93.77
2023-03-19T09:56:11.548Z,92.91
2023-03-19T09:58:39.690Z,91.49
2023-03-19T10:01:30.592Z,92.47
2023-03-19T10:04:29.704Z,94.83
2023-03-19T10:07:23.231Z,92.81
2023-03-19T10:10:17.069Z,94.02
2023-03-19T10:13:20.872Z,98.81
2023-03-19T10:15:52.972Z,88.37
2023-03-19T10:18:39.175Z,87.15
2023-03-19T10:21:20.833Z,79.72
2023-03-19T10:23:53.583Z,76.62
2023-03-19T10:26:28.299Z,81.25
2023-03-19T10:29:15.863Z,77.62
2023-03-19T10:31:52.720Z,72.93
2023-03-19T10:34:37.976Z,75.47
2023-03-19T10:37:28.822Z,69.72
2023-03-19T10:39:59.509Z,69.61
2023-03-19T10:42:55.375Z,74.03
2023-03-19T10:45:29.639Z,60.09
2023-03-19T10:47:59.753Z,56.44
2023-03-19T10:50:49.014Z,55.01
2023-03-19T10:53:25.400Z,53.85
2023-03-19T10:55:56.710Z,52.25
2023-03-19T10:58:29.535Z,51.03
2023-03-19T11:01:09.983Z,50.11
2023-03-19T11:03:41.107Z,48.42
2023-03-19T11:06:27.881Z,46.69
2023-03-19T11:08:59.797Z,46.43
2023-03-19T11:11:54.905Z,46.02
2023-03-19T11:14:35.509Z,45.02
2023-03-19T11:17:26.728Z,43.42
2023-03-19T11:19:59.671Z,42.76
2023-03-19T11:22:34.524Z,42.30
2023-03-19T11:25:04.071Z,40.88
2023-03-19T11:27:35.754Z,40.21
2023-03-19T11:30:15.479Z,39.58
2023-03-19T11:33:15.970Z,38.76
2023-03-19T11:36:02.944Z,38.10
2023-03-19T11:38:54.647Z,37.42
2023-03-19T11:41:36.840Z,37.88
2023-03-19T11:44:26.723Z,37.55
2023-03-19T11:47:02.274Z,36.77
2023-03-19T11:49:30.690Z,36.47
2023-03-19T11:52:16.905Z,36.98
2023-03-19T11:54:57.260Z,35.96
2023-03-19T11:57:46.430Z,35.42
2023-03-19T12:00:46.715Z,35.81
2023-03-19T12:03:30.956Z,34.43
2023-03-19T12:06:06.231Z,33.68
2023-03-19T12:08:53.708Z,33.30
2023-03-19T12:11:28.624Z,33.78
2023-03-19T12:14:03.562Z,33.81
2023-03-19T12:16:45.843Z,33.01
2023-03-19T12:19:49.427Z,32.83
2023-03-19T12:22:24.722Z,32.21
2023-03-19T12:25:03.555Z,31.14
2023-03-19T12:27:45.041Z,30.11
2023-03-19T12:30:33.243Z,28.99
2023-03-19T12:33:27.145Z,29.22
2023-03-19T12:35:59.174Z,29.41
2023-03-19T12:38:58.279Z,28.74
2023-03-19T12:41:31.548Z,28.52
2023-03-19T12:44:11.720Z,29.07
2023-03-19T12:46:44.519Z,29.26
2023-03-19T12:49:25.830Z,28.69
2023-03-19T12:52:06.328Z,27.98
2023-03-19T12:54:41.803Z,27.72
2023-03-19T12:57:28.133Z,28.13
2023-03-19T13:00:06.736Z,27.90
2023-03-19T13:02:47.691Z,27.31
2023-03-19T13:05:41.952Z,27.29
2023-03-19T13:08:38.258Z,27.06
2023-03-19T13:11:16.070Z,27.01
2023-03-19T13:14:06.233Z,26.83
2023-03-19T13:16:51.334Z,26.37
2023-03-19T13:19:35.826Z,26.67
2023-03-19T13:22:11.206Z,26.77
2023-03-19T13:24:43.398Z,27.07
2023-03-19T13:27:36.177Z,26.43
2023-03-19T13:30:13.410Z,26.34
2023-03-19T13:32:49.019Z,26.17
2023-03-19T13:35:25.079Z,25.83
2023-03-19T13:38:16.405Z,26.57
2023-03-19T13:40:44.439Z,26.75
2023-03-19T13:43:37.500Z,26.17
2023-03-19T13:46:17.535Z,25.97
2023-03-19T13:48:45.996Z,26.76
2023-03-19T13:51:20.684Z,25.97
2023-03-19T13:54:03.921Z,25.29
2023-03-19T13:56:33.353Z,24.94
2023-03-19T13:59:25.268Z,24.99
2023-03-19T14:01:54.421Z,24.92
2023-03-19T14:04:37.293Z,24.83
2023-03-19T14:07:28.929Z,24.86
2023-03-19T14:10:00.316Z,24.98
2023-03-19T14:12:42.915Z,24.53
2023-03-19T14:15:11.465Z,24.34
2023-03-19T14:18:07.750Z,24.85
2023-03-19T14:21:12.474Z,24.69
2023-03-19T14:23:52.709Z,25.12
2023-03-19T14:26:24.633Z,25.08
2023-03-19T14:29:06.139Z,24.81
2023-03-19T14:31:46.033Z,24.91
2023-03-19T14:34:20.885Z,24.79
2023-03-19T14:36:58.273Z,24.75
2023-03-19T14:39:41.072Z,25.10
2023-03-19T14:42:26.992Z,25.57
2023-03-19T14:45:20.189Z,26.00
2023-03-19T14:48:17.612Z,26.27
2023-03-19T14:50:55.214Z,26.24
2023-03-19T14:53:34.888Z,26.47
2023-03-19T14:56:14.108Z,26.16
2023-03-19T14:58:55.673Z,26.01
2023-03-19T15:01:29.305Z,25.91
2023-03-19T15:04:03.744Z,25.42
2023-03-19T15:06:36.599Z,25.41
2023-03-19T15:09:18.497Z,24.97
2023-03-19T15:12:17.726Z,25.88
2023-03-19T15:14:48.971Z,26.11
2023-03-19T15:17:30.049Z,26.75
2023-03-19T15:20:02.523Z,27.16
2023-03-19T15:22:34.571Z,26.61
2023-03-19T15:25:15.678Z,26.16
2023-03-19T15:27:43.985Z,26.97
2023-03-19T15:30:32.913Z,27.91
2023-03-19T15:33:13.985Z,28.91
2023-03-19T15:35:49.134Z,30.10
2023-03-19T15:38:18.918Z,30.90
2023-03-19T15:40:48.518Z,32.10
2023-03-19T15:43:17.035Z,32.87
2023-03-19T15:45:51.202Z,34.05
2023-03-19T15:48:36.522Z,34.69
2023-03-19T15:51:06.683Z,35.39
2023-03-19T15:53:36.632Z,36.61
2023-03-19T15:56:05.497Z,36.81
2023-03-19T15:58:43.250Z,36.36
2023-03-19T16:01:13.137Z,36.05
2023-03-19T16:04:16.310Z,35.74
2023-03-19T16:06:49.597Z,35.08
2023-03-19T16:09:30.968Z,35.08
2023-03-19T16:12:00.299Z,36.30
2023-03-19T16:14:43.722Z,37.00
2023-03-19T16:17:14.733Z,37.56
2023-03-19T16:19:56.507Z,38.33
2023-03-19T16:22:31.588Z,39.06
2023-03-19T16:25:03.145Z,39.36
2023-03-19T16:27:31.327Z,39.82
2023-03-19T16:30:00.487Z,40.45
2023-03-19T16:32:32.723Z,41.66
2023-03-19T16:35:14.749Z,42.85
2023-03-19T16:37:49.616Z,43.63
2023-03-19T16:40:17.820Z,44.66
2023-03-19T16:43:08.417Z,46.63
2023-03-19T16:45:36.809Z,46.32
2023-03-19T16:48:05.577Z,44.44
2023-03-19T16:50:39.042Z,45.95
2023-03-19T16:53:22.486Z,49.62
2023-03-19T16:55:53.210Z,52.33
2023-03-19T16:58:26.285Z,54.20
2023-03-19T17:00:54.908Z,49.10
2023-03-19T17:03:23.262Z,47.56
2023-03-19T17:05:51.444Z,49.25
2023-03-19T17:08:23.225Z,47.97
2023-03-19T17:10:53.530Z,48.78
2023-03-19T17:13:28.357Z,48.78
2023-03-19T17:16:02.488Z,57.83
2023-03-19T17:18:35.245Z,62.60
2023-03-19T17:21:03.363Z,60.16
2023-03-19T17:23:32.590Z,60.66
2023-03-19T17:26:03.144Z,66.54
2023-03-19T17:28:32.594Z,75.72
2023-03-19T17:31:00.879Z,73.42
2023-03-19T17:33:30.399Z,63.31
2023-03-19T17:35:59.518Z,68.12
2023-03-19T17:38:34.565Z,64.72
2023-03-19T17:41:13.237Z,62.16
2023-03-19T17:43:41.466Z,66.36
2023-03-19T17:46:18.108Z,66.08
2023-03-19T17:48:48.511Z,82.76
2023-03-19T17:51:18.067Z,70.68
2023-03-19T17:53:49.969Z,70.41
2023-03-19T17:56:21.156Z,70.87
2023-03-19T17:58:50.700Z,72.66
2023-03-19T18:01:26.118Z,76.40
2023-03-19T18:03:56.413Z,79.27
2023-03-19T18:06:29.409Z,82.09
2023-03-19T18:08:57.447Z,86.81
2023-03-19T18:11:27.708Z,90.24
2023-03-19T18:13:56.370Z,90.94
2023-03-19T18:16:28.355Z,90.61
2023-03-19T18:19:01.620Z,93.68
2023-03-19T18:21:31.278Z,97.43
2023-03-19T18:23:59.829Z,97.60
2023-03-19T18:26:27.888Z,99.19
2023-03-19T18:28:55.968Z,100.00
2023-03-19T18:31:25.722Z,100.00
2023-03-19T18:34:01.269Z,100.00
2023-03-19T18:36:31.453Z,100.00
2023-03-19T18:39:00.056Z,100.00
2023-03-19T18:41:29.755Z,100.00
2023-03-19T18:44:09.293Z,100.00
2023-03-19T18:46:39.957Z,100.00
2023-03-19T18:49:26.709Z,100.00
2023-03-19T18:52:02.768Z,100.00
2023-03-19T18:54:32.266Z,100.00
2023-03-19T18:57:01.423Z,100.00
2023-03-19T18:59:32.875Z,100.00
2023-03-19T19:02:13.929Z,100.00
2023-03-19T19:04:41.982Z,100.00
2023-03-19T19:07:15.068Z,100.00
2023-03-19T19:09:43.824Z,100.00
2023-03-19T19:12:18.396Z,100.00
2023-03-19T19:14:47.012Z,100.00
2023-03-19T19:17:24.411Z,100.00
2023-03-19T19:19:52.489Z,100.00
2023-03-19T19:22:20.774Z,100.00
2023-03-19T19:24:48.924Z,100.00
2023-03-19T19:27:26.839Z,100.00
2023-03-19T19:29:57.459Z,100.00
2023-03-19T19:32:28.723Z,100.00
2023-03-19T19:34:58.654Z,100.00
2023-03-19T19:37:26.822Z,100.00
2023-03-19T19:39:56.586Z,100.00
2023-03-19T19:42:25.464Z,100.00
2023-03-19T19:44:58.982Z,100.00
2023-03-19T19:47:27.874Z,100.00
2023-03-19T19:49:56.656Z,100.00
2023-03-19T19:52:24.884Z,100.00
2023-03-19T19:54:53.035Z,100.00
2023-03-19T19:57:24.795Z,100.00
2023-03-19T19:59:54.732Z,100.00
2023-03-19T20:02:31.377Z,100.00
2023-03-19T20:04:59.925Z,100.00
2023-03-19T20:07:28.210Z,100.00
2023-03-19T20:09:56.250Z,100.00
2023-03-19T20:12:29.644Z,100.00
2023-03-19T20:14:57.951Z,100.00
2023-03-19T20:17:27.329Z,100.00
2023-03-19T20:19:57.438Z,100.00
2023-03-19T20:22:25.761Z,100.00
2023-03-19T20:24:56.457Z,100.00
2023-03-19T20:27:32.723Z,100.00
2023-03-19T20:30:04.524Z,100.00
2023-03-19T20:32:36.355Z,100.00
2023-03-19T20:35:14.554Z,100.00
2023-03-19T20:37:42.841Z,100.00
2023-03-19T20:40:13.240Z,100.00
2023-03-19T20:42:43.422Z,100.00
2023-03-19T20:45:22.950Z,100.00
2023-03-19T20:47:52.973Z,100.00
2023-03-19T20:50:28.177Z,100.00
2023-03-19T20:53:01.208Z,100.00
2023-03-19T20:55:35.334Z,100.00
2023-03-19T20:58:14.371Z,100.00
2023-03-19T21:00:42.681Z,100.00
2023-03-19T21:03:17.444Z,100.00
2023-03-19T21:05:46.409Z,100.00
2023-03-19T21:08:20.613Z,100.00
2023-03-19T21:10:49.841Z,100.00
2023-03-19T21:13:19.468Z,100.00
2023-03-19T21:15:49.878Z,100.00
2023-03-19T21:18:18.132Z,100.00
2023-03-19T21:20:56.965Z,100.00
2023-03-19T21:23:27.730Z,100.00
2023-03-19T21:25:56.195Z,100.00
2023-03-19T21:28:35.990Z,100.00
2023-03-19T21:31:05.437Z,100.00
2023-03-19T21:33:35.568Z,100.00
2023-03-19T21:36:04.376Z,100.00
2023-03-19T21:38:36.212Z,100.00
2023-03-19T21:41:10.663Z,100.00
2023-03-19T21:43:49.474Z,100.00
2023-03-19T21:46:24.433Z,100.00
2023-03-19T21:48:54.514Z,100.00
2023-03-19T21:51:25.156Z,100.00
2023-03-19T21:53:53.317Z,100.00
2023-03-19T21:56:46.014Z,100.00
2023-03-19T21:59:18.544Z,100.00
2023-03-19T22:01:46.884Z,100.00
2023-03-19T22:04:14.882Z,100.00
2023-03-19T22:06:43.328Z,100.00
2023-03-19T22:09:11.600Z,100.00
2023-03-19T22:11:41.937Z,100.00
2023-03-19T22:14:16.032Z,100.00
2023-03-19T22:16:45.702Z,100.00
2023-03-19T22:19:19.351Z,100.00
2023-03-19T22:21:48.335Z,100.00
2023-03-19T22:24:16.463Z,100.00
2023-03-19T22:26:47.196Z,100.00
2023-03-19T22:29:25.547Z,100.00
2023-03-19T22:31:55.833Z,100.00
2023-03-19T22:34:27.659Z,100.00
2023-03-19T22:36:57.244Z,100.00
2023-03-19T22:39:25.290Z,100.00
2023-03-19T22:41:53.452Z,100.00
2023-03-19T22:44:30.872Z,100.00
2023-03-19T22:47:01.134Z,100.00
2023-03-19T22:49:30.193Z,100.00
2023-03-19T22:51:58.664Z,100.00
2023-03-19T22:54:27.367Z,100.00
2023-03-19T22:56:55.688Z,100.00
2023-03-19T22:59:23.669Z,100.00
2023-03-19T23:01:51.733Z,100.00
2023-03-19T23:04:27.638Z,100.00
2023-03-19T23:06:56.823Z,100.00
2023-03-19T23:09:30.805Z,100.00
2023-03-19T23:12:00.100Z,100.00
2023-03-19T23:14:30.837Z,100.00
2023-03-19T23:17:19.791Z,100.00
2023-03-19T23:19:49.922Z,100.00
2023-03-19T23:22:17.900Z,100.00
2023-03-19T23:24:46.895Z,100.00
2023-03-19T23:27:34.548Z,100.00
2023-03-19T23:30:02.899Z,100.00
2023-03-19T23:32:31.205Z,100.00
2023-03-19T23:35:01.618Z,100.00
2023-03-19T23:37:30.272Z,100.00
2023-03-19T23:39:58.500Z,100.00
2023-03-19T23:42:30.527Z,100.00
2023-03-19T23:45:03.442Z,100.00
2023-03-19T23:47:32.403Z,100.00
2023-03-19T23:50:00.535Z,100.00
2023-03-19T23:52:29.309Z,100.00
2023-03-19T23:54:57.620Z,100.00
2023-03-19T23:57:27.394Z,100.00
2023-03-19T23:59:55.832Z,100.00
